True Faith — V3ZS3 — position and weather

sailwx.info

Track history (hours):
 
Tides and Currents Weather Stations Pressure Air Temp Water Temp Dewpoint Dewpoint Depression Visibility Wind Speed Wind Dir Waves Ship Positions

True Faith

Last reported at 2018-Jan-30 03:04 UTC. Time now 2018-Feb-21 03:10 UTC.
Position N 36°32' E 023°46'.
Warning: this ship's position is 22 days out of date.

Length 170 m; draft 9.9 m.

Type: Cargo ship. MMSI: 312548000.

Date/timePositionNaut miles runAvg speedWind from/ knotsBaromVisibWave heightAir tempDewpointWater temp
2018-Jan-30 03:04N 36°32' E 023°46'110.9
2018-Jan-30 03:00N 36°33' E 023°46'7510.9
2018-Jan-29 20:08N 37°39' E 024°30'28110.3
2018-Jan-28 16:45N 40°55' E 028°50'8 6.2
2018-Jan-28 15:27N 40°59' E 028°59'121 4.6
2018-Jan-27 13:04N 42°55' E 029°43'8212.0
2018-Jan-27 06:15N 44°14' E 030°16'11111.6
2018-Jan-26 20:40N 46°00' E 031°02'211.3
2018-Jan-26 20:30N 46°02' E 031°03'710.5
2018-Jan-26 19:50N 46°09' E 031°02'511.0
2018-Jan-26 19:26N 46°13' E 030°58'410.6
2018-Jan-26 19:00N 46°17' E 030°55'611.3
2018-Jan-26 18:30N 46°22' E 030°55'611.4
2018-Jan-26 18:00N 46°28' E 030°55'510.0
2018-Jan-26 17:30N 46°33' E 030°58'5 9.1
2018-Jan-26 17:00N 46°34' E 031°04'510.3
2018-Jan-26 16:30N 46°35' E 031°11'510.3
2018-Jan-26 16:00N 46°35' E 031°19'7 9.5
2018-Jan-26 15:13N 46°36' E 031°29'2 9.0
2018-Jan-26 14:58N 46°35' E 031°32'4 8.9
2018-Jan-26 14:30N 46°36' E 031°38'4 8.5
2018-Jan-26 14:00N 46°36' E 031°44'4 8.5
2018-Jan-26 13:30N 46°36' E 031°50'5 9.2
2018-Jan-26 13:00N 46°39' E 031°56'5 9.1
2018-Jan-26 12:30N 46°44' E 031°56'4 8.3
2018-Jan-26 12:00N 46°47' E 031°53'5 9.3
2018-Jan-26 11:30N 46°51' E 031°57'5 9.3
2018-Jan-26 11:00N 46°55' E 032°01'2 3.8
2018-Jan-26 10:30N 46°56' E 031°59'0 0.6
2018-Jan-26 09:58N 46°57' E 031°59'0 0.0
2018-Jan-26 09:28N 46°57' E 031°59'0 0.0
2018-Jan-26 08:58N 46°57' E 031°59'0 0.0
2018-Jan-26 08:28N 46°57' E 031°59'0 0.0
2018-Jan-26 07:58N 46°57' E 031°59'0 0.0
2018-Jan-26 07:28N 46°57' E 031°59'0 0.0
2018-Jan-26 06:58N 46°57' E 031°59'0 0.0
2018-Jan-26 06:28N 46°57' E 031°59'0 0.0
2018-Jan-26 05:58N 46°57' E 031°59'0 0.0
2018-Jan-26 05:28N 46°57' E 031°59'0 0.0
2018-Jan-26 04:58N 46°57' E 031°59'0 0.0
2018-Jan-26 04:28N 46°57' E 031°59'0 0.0
2018-Jan-26 03:58N 46°57' E 031°59'0 0.0
2018-Jan-26 03:28N 46°57' E 031°59'0 0.0
2018-Jan-26 02:58N 46°57' E 031°59'0 0.0
2018-Jan-26 02:28N 46°57' E 031°59'0 0.0
2018-Jan-26 01:58N 46°57' E 031°59'0 0.0
2018-Jan-26 01:28N 46°57' E 031°59'0 0.0
2018-Jan-26 00:58N 46°57' E 031°59'0 0.0
2018-Jan-26 00:28N 46°57' E 031°59'0 0.0
2018-Jan-25 23:58N 46°57' E 031°59'0 0.0
2018-Jan-25 23:28N 46°57' E 031°59'0 0.0
2018-Jan-25 22:58N 46°57' E 031°59'0 0.0
2018-Jan-25 22:28N 46°57' E 031°59'0 0.0
2018-Jan-25 21:58N 46°57' E 031°59'0 0.0
2018-Jan-25 21:28N 46°57' E 031°59'0 0.1
2018-Jan-25 20:58N 46°57' E 031°59'0 0.1
2018-Jan-25 20:28N 46°57' E 031°59'0 0.0
2018-Jan-25 19:58N 46°57' E 031°59'0 0.0
2018-Jan-25 19:28N 46°57' E 031°59'0 0.0
2018-Jan-25 18:58N 46°57' E 031°59'0 0.0
2018-Jan-25 18:28N 46°57' E 031°59'0 0.0
2018-Jan-25 17:58N 46°57' E 031°59'0 0.0
2018-Jan-25 17:28N 46°57' E 031°59'0 0.0
2018-Jan-25 16:58N 46°57' E 031°59'0 0.0
2018-Jan-25 16:28N 46°57' E 031°59'0 0.0
2018-Jan-25 15:58N 46°57' E 031°59'0 0.0
2018-Jan-25 15:28N 46°57' E 031°59'0 0.0
2018-Jan-25 14:58N 46°57' E 031°59'0 0.0
2018-Jan-25 14:28N 46°57' E 031°59'0 0.0
2018-Jan-25 13:58N 46°57' E 031°59'0 0.0
2018-Jan-25 13:28N 46°57' E 031°59'0 0.0
2018-Jan-25 12:58N 46°57' E 031°59'0 0.0
2018-Jan-25 12:28N 46°57' E 031°59'0 0.0
2018-Jan-25 11:58N 46°57' E 031°59'0 0.0
2018-Jan-25 11:28N 46°57' E 031°59'0 0.0
2018-Jan-25 10:55N 46°57' E 031°59'0 0.0
2018-Jan-25 10:28N 46°57' E 031°59'0 0.0
2018-Jan-25 09:58N 46°57' E 031°59'0 0.0
2018-Jan-25 09:28N 46°57' E 031°59'0 0.0
2018-Jan-25 08:58N 46°57' E 031°59'0 0.0
2018-Jan-25 08:28N 46°57' E 031°59'0 0.0
2018-Jan-25 07:58N 46°57' E 031°59'0 0.0
2018-Jan-25 07:28N 46°57' E 031°59'0 0.0
2018-Jan-25 06:58N 46°57' E 031°59'0 0.0
2018-Jan-25 06:28N 46°57' E 031°59'0 0.0
2018-Jan-25 05:58N 46°57' E 031°59'0 0.0
2018-Jan-25 05:28N 46°57' E 031°59'0 0.0
2018-Jan-25 04:58N 46°57' E 031°59'0 0.0
2018-Jan-25 04:28N 46°57' E 031°59'0 0.0
2018-Jan-25 03:58N 46°57' E 031°59'0 0.0
2018-Jan-25 03:28N 46°57' E 031°59'0 0.0
2018-Jan-25 02:58N 46°57' E 031°59'0 0.0
2018-Jan-25 02:28N 46°57' E 031°59'0 0.1
2018-Jan-25 01:58N 46°57' E 031°59'0 0.1
2018-Jan-25 01:28N 46°57' E 031°59'0 0.0
2018-Jan-25 00:58N 46°57' E 031°59'0 0.0
2018-Jan-25 00:28N 46°57' E 031°59'0 0.0
2018-Jan-24 23:58N 46°57' E 031°59'0 0.0
2018-Jan-24 23:28N 46°57' E 031°59'0 0.0
2018-Jan-24 22:58N 46°57' E 031°59'0 0.0
2018-Jan-24 22:25N 46°57' E 031°59'0 0.0
2018-Jan-24 21:58N 46°57' E 031°59'0 0.0
2018-Jan-24 21:28N 46°57' E 031°59'0 0.0
2018-Jan-24 20:58N 46°57' E 031°59'0 0.0
2018-Jan-24 20:28N 46°57' E 031°59'0 0.0
2018-Jan-24 19:58N 46°57' E 031°59'0 0.0
2018-Jan-24 19:28N 46°57' E 031°59'0 0.0
2018-Jan-24 18:55N 46°57' E 031°59'0 0.0
2018-Jan-24 18:28N 46°57' E 031°59'0 0.0
2018-Jan-24 17:58N 46°57' E 031°59'0 0.0
2018-Jan-24 17:28N 46°57' E 031°59'0 0.0
2018-Jan-24 16:58N 46°57' E 031°59'0 0.0
2018-Jan-24 16:28N 46°57' E 031°59'0 0.0
2018-Jan-24 15:55N 46°57' E 031°59'0 0.0
2018-Jan-24 15:28N 46°57' E 031°59'0 0.0
2018-Jan-24 14:58N 46°57' E 031°59'0 0.0
2018-Jan-24 14:29N 46°57' E 031°59'0 0.0
2018-Jan-24 13:59N 46°57' E 031°59'0 0.0
2018-Jan-24 13:29N 46°57' E 031°59'0 0.0
2018-Jan-24 12:59N 46°57' E 031°59'0 0.0
2018-Jan-24 12:29N 46°57' E 031°59'0 0.0
2018-Jan-24 11:59N 46°57' E 031°59'0 0.0
2018-Jan-24 11:29N 46°57' E 031°59'0 0.0
2018-Jan-24 10:59N 46°57' E 031°59'0 0.0
2018-Jan-24 10:29N 46°57' E 031°59'0 0.0
2018-Jan-24 09:59N 46°57' E 031°59'0 0.0
2018-Jan-24 09:29N 46°57' E 031°59'0 0.0
2018-Jan-24 08:59N 46°57' E 031°59'0 0.0
2018-Jan-24 08:29N 46°57' E 031°59'0 0.0
2018-Jan-24 07:59N 46°57' E 031°59'0 0.0
2018-Jan-24 07:29N 46°57' E 031°59'0 0.0
2018-Jan-24 06:59N 46°57' E 031°59'0 0.0
2018-Jan-24 06:29N 46°57' E 031°59'0 0.0
2018-Jan-24 05:59N 46°57' E 031°59'0 0.0
2018-Jan-24 05:29N 46°57' E 031°59'0 0.0
2018-Jan-24 04:59N 46°57' E 031°59'0 0.0
2018-Jan-24 04:29N 46°57' E 031°59'0 0.0
2018-Jan-24 03:59N 46°57' E 031°59'0 0.0
2018-Jan-24 03:29N 46°57' E 031°59'0 0.0
2018-Jan-24 02:59N 46°57' E 031°59'0 0.0
2018-Jan-24 02:29N 46°57' E 031°59'0 0.0
2018-Jan-24 01:59N 46°57' E 031°59'0 0.0
2018-Jan-24 01:29N 46°57' E 031°59'0 0.0
2018-Jan-24 00:59N 46°57' E 031°59'0 0.0
2018-Jan-24 00:29N 46°57' E 031°59'0 0.0
2018-Jan-23 23:59N 46°57' E 031°59'0 0.0
2018-Jan-23 23:29N 46°57' E 031°59'0 0.0
2018-Jan-23 22:59N 46°57' E 031°59'0 0.0
2018-Jan-23 22:29N 46°57' E 031°59'0 0.0
2018-Jan-23 21:59N 46°57' E 031°59'0 0.0
2018-Jan-23 21:29N 46°57' E 031°59'0 0.0
2018-Jan-23 20:59N 46°57' E 031°59'0 0.0
2018-Jan-23 20:29N 46°57' E 031°59'0 0.0
2018-Jan-23 19:59N 46°57' E 031°59'0 0.0
2018-Jan-23 19:29N 46°57' E 031°59'0 0.0
2018-Jan-23 18:59N 46°57' E 031°59'0 0.0
2018-Jan-23 18:29N 46°57' E 031°59'0 0.0
2018-Jan-23 17:59N 46°57' E 031°59'0 0.0
2018-Jan-23 17:29N 46°57' E 031°59'0 0.0
2018-Jan-23 16:59N 46°57' E 031°59'0 0.0
2018-Jan-23 16:29N 46°57' E 031°59'0 0.0
2018-Jan-23 15:59N 46°57' E 031°59'0 0.0
2018-Jan-23 15:29N 46°57' E 031°59'0 0.0
2018-Jan-23 14:59N 46°57' E 031°59'0 0.0
2018-Jan-23 14:29N 46°57' E 031°59'0 0.0
2018-Jan-23 13:59N 46°57' E 031°59'0 0.0
2018-Jan-23 13:29N 46°57' E 031°59'0 0.0
2018-Jan-23 12:59N 46°57' E 031°59'0 0.0
2018-Jan-23 12:29N 46°57' E 031°59'0 0.0
2018-Jan-23 11:59N 46°57' E 031°59'0 0.0
2018-Jan-23 11:29N 46°57' E 031°59'0 0.0
2018-Jan-23 10:59N 46°57' E 031°59'0 0.0
2018-Jan-23 10:29N 46°57' E 031°59'0 0.0
2018-Jan-23 09:59N 46°57' E 031°59'0 0.3
2018-Jan-23 09:29N 46°56' E 031°59'1 1.1
2018-Jan-23 08:59N 46°56' E 031°60'0 0.1
2018-Jan-23 08:29N 46°56' E 031°60'0 0.0
2018-Jan-23 07:59N 46°56' E 031°60'0 0.0
2018-Jan-23 07:29N 46°56' E 031°60'0 0.0
2018-Jan-23 06:59N 46°56' E 031°60'0 0.0
2018-Jan-23 06:29N 46°56' E 031°60'0 0.0
2018-Jan-23 05:59N 46°56' E 031°60'0 0.0
2018-Jan-23 05:29N 46°56' E 031°60'0 0.0
2018-Jan-23 04:59N 46°56' E 031°60'0 0.0
2018-Jan-23 04:29N 46°56' E 031°60'0 0.0
2018-Jan-23 03:59N 46°56' E 031°60'0 0.0
2018-Jan-23 03:29N 46°56' E 031°60'0 0.0
2018-Jan-23 02:59N 46°56' E 031°60'0 0.0
2018-Jan-23 02:29N 46°56' E 031°60'0 0.0
2018-Jan-23 01:59N 46°56' E 031°60'0 0.0
2018-Jan-23 01:29N 46°56' E 031°60'0 0.0
2018-Jan-23 00:59N 46°56' E 031°60'0 0.0
2018-Jan-23 00:29N 46°56' E 031°60'0 0.0
2018-Jan-22 23:59N 46°56' E 031°60'0 0.0
2018-Jan-22 23:29N 46°56' E 031°60'0 0.0
2018-Jan-22 22:56N 46°56' E 031°60'0 0.0
2018-Jan-22 22:29N 46°56' E 031°60'0 0.0
2018-Jan-22 21:59N 46°56' E 031°60'0 0.0
2018-Jan-22 21:29N 46°56' E 031°60'0 0.0
2018-Jan-22 20:59N 46°56' E 031°60'0 0.3
2018-Jan-22 20:30N 46°56' E 032°00'2 4.3
2018-Jan-22 20:00N 46°54' E 032°01'510.3
2018-Jan-22 19:30N 46°50' E 031°56'5 9.9
2018-Jan-22 19:00N 46°45' E 031°54'5 9.6
2018-Jan-22 18:30N 46°41' E 031°56'5 9.8
2018-Jan-22 18:00N 46°37' E 031°52'510.5
2018-Jan-22 17:30N 46°36' E 031°44'510.7
2018-Jan-22 17:00N 46°35' E 031°37'5 9.1
2018-Jan-22 16:27N 46°36' E 031°29'510.0
2018-Jan-22 15:58N 46°35' E 031°23'511.1
2018-Jan-22 15:30N 46°35' E 031°15'510.6
2018-Jan-22 15:00N 46°35' E 031°07'4 6.8
2018-Jan-22 14:29N 46°34' E 031°02'3 7.1
2018-Jan-22 14:00N 46°33' E 030°58'510.0
2018-Jan-22 13:30N 46°28' E 030°57'510.1
2018-Jan-22 13:00N 46°23' E 030°60'2 2.7
2018-Jan-22 12:25N 46°21' E 031°01'0 0.1
2018-Jan-22 11:55N 46°21' E 031°01'0 0.1
2018-Jan-22 11:28N 46°21' E 031°01'0 0.0
2018-Jan-22 10:58N 46°21' E 031°01'0 0.0
2018-Jan-22 10:28N 46°21' E 031°01'0 0.0
2018-Jan-22 09:49N 46°21' E 031°01'0 0.0
2018-Jan-22 09:22N 46°21' E 031°01'0 0.1
2018-Jan-22 08:58N 46°22' E 031°01'0 0.0
2018-Jan-22 08:07N 46°22' E 031°01'0 0.3
2018-Jan-22 07:58N 46°22' E 031°01'0 0.2
2018-Jan-22 07:28N 46°21' E 031°01'0 0.1
2018-Jan-22 06:58N 46°22' E 031°01'0 0.1
2018-Jan-22 06:28N 46°22' E 031°01'0 0.1
2018-Jan-22 05:58N 46°22' E 031°01'0 0.0
2018-Jan-22 05:22N 46°22' E 031°01'0 0.0
2018-Jan-22 04:58N 46°22' E 031°01'0 0.0
2018-Jan-22 04:28N 46°22' E 031°01'0 0.0
2018-Jan-22 03:52N 46°22' E 031°01'0 0.1
2018-Jan-22 03:28N 46°22' E 031°01'0 0.0
2018-Jan-22 02:52N 46°22' E 031°01'0 0.0
2018-Jan-22 02:07N 46°22' E 031°01'0 0.1
2018-Jan-22 01:58N 46°22' E 031°01'0 0.0
2018-Jan-22 01:28N 46°22' E 031°01'0 0.0
2018-Jan-22 00:58N 46°22' E 031°01'0 0.1
2018-Jan-22 00:07N 46°22' E 031°01'0 0.2
2018-Jan-21 23:55N 46°22' E 031°01'0 0.0
2018-Jan-21 23:25N 46°22' E 031°01'0 0.0
2018-Jan-21 22:34N 46°22' E 031°01'0 0.0
2018-Jan-21 22:19N 46°22' E 031°01'0 0.0
2018-Jan-21 21:46N 46°22' E 031°01'0 0.2
2018-Jan-21 21:25N 46°22' E 031°01'1 2.1
2018-Jan-21 21:01N 46°21' E 031°02'3 5.2
2018-Jan-21 20:30N 46°18' E 031°03'611.6
2018-Jan-21 20:00N 46°13' E 031°06'611.7
2018-Jan-21 19:30N 46°07' E 031°08'112 2.8
2018-Jan-20 04:11N 44°19' E 030°25'312.2
2018-Jan-20 03:57N 44°17' E 030°24'612.2
2018-Jan-20 03:29N 44°11' E 030°22'  
Track history (hours):
 
Tides and Currents Weather Stations Pressure Air Temp Water Temp Dewpoint Dewpoint Depression Visibility Wind Speed Wind Dir Waves Ship Positions

True Faith

Last reported at 2018-Jan-30 03:04 UTC. Time now 2018-Feb-21 03:10 UTC.
Position N 36°32' E 023°46'.
Warning: this ship's position is 22 days out of date.

Length 170 m; draft 9.9 m.

Type: Cargo ship. MMSI: 312548000.

Date/timePositionNaut miles runAvg speedWind from/ knotsBaromVisibWave heightAir tempDewpointWater temp
2018-Jan-30 03:04N 36°32' E 023°46'110.9
2018-Jan-30 03:00N 36°33' E 023°46'7510.9
2018-Jan-29 20:08N 37°39' E 024°30'28110.3
2018-Jan-28 16:45N 40°55' E 028°50'8 6.2
2018-Jan-28 15:27N 40°59' E 028°59'121 4.6
2018-Jan-27 13:04N 42°55' E 029°43'8212.0
2018-Jan-27 06:15N 44°14' E 030°16'11111.6
2018-Jan-26 20:40N 46°00' E 031°02'211.3
2018-Jan-26 20:30N 46°02' E 031°03'710.5
2018-Jan-26 19:50N 46°09' E 031°02'511.0
2018-Jan-26 19:26N 46°13' E 030°58'410.6
2018-Jan-26 19:00N 46°17' E 030°55'611.3
2018-Jan-26 18:30N 46°22' E 030°55'611.4
2018-Jan-26 18:00N 46°28' E 030°55'510.0
2018-Jan-26 17:30N 46°33' E 030°58'5 9.1
2018-Jan-26 17:00N 46°34' E 031°04'510.3
2018-Jan-26 16:30N 46°35' E 031°11'510.3
2018-Jan-26 16:00N 46°35' E 031°19'7 9.5
2018-Jan-26 15:13N 46°36' E 031°29'2 9.0
2018-Jan-26 14:58N 46°35' E 031°32'4 8.9
2018-Jan-26 14:30N 46°36' E 031°38'4 8.5
2018-Jan-26 14:00N 46°36' E 031°44'4 8.5
2018-Jan-26 13:30N 46°36' E 031°50'5 9.2
2018-Jan-26 13:00N 46°39' E 031°56'5 9.1
2018-Jan-26 12:30N 46°44' E 031°56'4 8.3
2018-Jan-26 12:00N 46°47' E 031°53'5 9.3
2018-Jan-26 11:30N 46°51' E 031°57'5 9.3
2018-Jan-26 11:00N 46°55' E 032°01'2 3.8
2018-Jan-26 10:30N 46°56' E 031°59'0 0.6
2018-Jan-26 09:58N 46°57' E 031°59'0 0.0
2018-Jan-26 09:28N 46°57' E 031°59'0 0.0
2018-Jan-26 08:58N 46°57' E 031°59'0 0.0
2018-Jan-26 08:28N 46°57' E 031°59'0 0.0
2018-Jan-26 07:58N 46°57' E 031°59'0 0.0
2018-Jan-26 07:28N 46°57' E 031°59'0 0.0
2018-Jan-26 06:58N 46°57' E 031°59'0 0.0
2018-Jan-26 06:28N 46°57' E 031°59'0 0.0
2018-Jan-26 05:58N 46°57' E 031°59'0 0.0
2018-Jan-26 05:28N 46°57' E 031°59'0 0.0
2018-Jan-26 04:58N 46°57' E 031°59'0 0.0
2018-Jan-26 04:28N 46°57' E 031°59'0 0.0
2018-Jan-26 03:58N 46°57' E 031°59'0 0.0
2018-Jan-26 03:28N 46°57' E 031°59'0 0.0
2018-Jan-26 02:58N 46°57' E 031°59'0 0.0
2018-Jan-26 02:28N 46°57' E 031°59'0 0.0
2018-Jan-26 01:58N 46°57' E 031°59'0 0.0
2018-Jan-26 01:28N 46°57' E 031°59'0 0.0
2018-Jan-26 00:58N 46°57' E 031°59'0 0.0
2018-Jan-26 00:28N 46°57' E 031°59'0 0.0
2018-Jan-25 23:58N 46°57' E 031°59'0 0.0
2018-Jan-25 23:28N 46°57' E 031°59'0 0.0
2018-Jan-25 22:58N 46°57' E 031°59'0 0.0
2018-Jan-25 22:28N 46°57' E 031°59'0 0.0
2018-Jan-25 21:58N 46°57' E 031°59'0 0.0
2018-Jan-25 21:28N 46°57' E 031°59'0 0.1
2018-Jan-25 20:58N 46°57' E 031°59'0 0.1
2018-Jan-25 20:28N 46°57' E 031°59'0 0.0
2018-Jan-25 19:58N 46°57' E 031°59'0 0.0
2018-Jan-25 19:28N 46°57' E 031°59'0 0.0
2018-Jan-25 18:58N 46°57' E 031°59'0 0.0
2018-Jan-25 18:28N 46°57' E 031°59'0 0.0
2018-Jan-25 17:58N 46°57' E 031°59'0 0.0
2018-Jan-25 17:28N 46°57' E 031°59'0 0.0
2018-Jan-25 16:58N 46°57' E 031°59'0 0.0
2018-Jan-25 16:28N 46°57' E 031°59'0 0.0
2018-Jan-25 15:58N 46°57' E 031°59'0 0.0
2018-Jan-25 15:28N 46°57' E 031°59'0 0.0
2018-Jan-25 14:58N 46°57' E 031°59'0 0.0
2018-Jan-25 14:28N 46°57' E 031°59'0 0.0
2018-Jan-25 13:58N 46°57' E 031°59'0 0.0
2018-Jan-25 13:28N 46°57' E 031°59'0 0.0
2018-Jan-25 12:58N 46°57' E 031°59'0 0.0
2018-Jan-25 12:28N 46°57' E 031°59'0 0.0
2018-Jan-25 11:58N 46°57' E 031°59'0 0.0
2018-Jan-25 11:28N 46°57' E 031°59'0 0.0
2018-Jan-25 10:55N 46°57' E 031°59'0 0.0
2018-Jan-25 10:28N 46°57' E 031°59'0 0.0
2018-Jan-25 09:58N 46°57' E 031°59'0 0.0
2018-Jan-25 09:28N 46°57' E 031°59'0 0.0
2018-Jan-25 08:58N 46°57' E 031°59'0 0.0
2018-Jan-25 08:28N 46°57' E 031°59'0 0.0
2018-Jan-25 07:58N 46°57' E 031°59'0 0.0
2018-Jan-25 07:28N 46°57' E 031°59'0 0.0
2018-Jan-25 06:58N 46°57' E 031°59'0 0.0
2018-Jan-25 06:28N 46°57' E 031°59'0 0.0
2018-Jan-25 05:58N 46°57' E 031°59'0 0.0
2018-Jan-25 05:28N 46°57' E 031°59'0 0.0
2018-Jan-25 04:58N 46°57' E 031°59'0 0.0
2018-Jan-25 04:28N 46°57' E 031°59'0 0.0
2018-Jan-25 03:58N 46°57' E 031°59'0 0.0
2018-Jan-25 03:28N 46°57' E 031°59'0 0.0
2018-Jan-25 02:58N 46°57' E 031°59'0 0.0
2018-Jan-25 02:28N 46°57' E 031°59'0 0.1
2018-Jan-25 01:58N 46°57' E 031°59'0 0.1
2018-Jan-25 01:28N 46°57' E 031°59'0 0.0
2018-Jan-25 00:58N 46°57' E 031°59'0 0.0
2018-Jan-25 00:28N 46°57' E 031°59'0 0.0
2018-Jan-24 23:58N 46°57' E 031°59'0 0.0
2018-Jan-24 23:28N 46°57' E 031°59'0 0.0
2018-Jan-24 22:58N 46°57' E 031°59'0 0.0
2018-Jan-24 22:25N 46°57' E 031°59'0 0.0
2018-Jan-24 21:58N 46°57' E 031°59'0 0.0
2018-Jan-24 21:28N 46°57' E 031°59'0 0.0
2018-Jan-24 20:58N 46°57' E 031°59'0 0.0
2018-Jan-24 20:28N 46°57' E 031°59'0 0.0
2018-Jan-24 19:58N 46°57' E 031°59'0 0.0
2018-Jan-24 19:28N 46°57' E 031°59'0 0.0
2018-Jan-24 18:55N 46°57' E 031°59'0 0.0
2018-Jan-24 18:28N 46°57' E 031°59'0 0.0
2018-Jan-24 17:58N 46°57' E 031°59'0 0.0
2018-Jan-24 17:28N 46°57' E 031°59'0 0.0
2018-Jan-24 16:58N 46°57' E 031°59'0 0.0
2018-Jan-24 16:28N 46°57' E 031°59'0 0.0
2018-Jan-24 15:55N 46°57' E 031°59'0 0.0
2018-Jan-24 15:28N 46°57' E 031°59'0 0.0
2018-Jan-24 14:58N 46°57' E 031°59'0 0.0
2018-Jan-24 14:29N 46°57' E 031°59'0 0.0
2018-Jan-24 13:59N 46°57' E 031°59'0 0.0
2018-Jan-24 13:29N 46°57' E 031°59'0 0.0
2018-Jan-24 12:59N 46°57' E 031°59'0 0.0
2018-Jan-24 12:29N 46°57' E 031°59'0 0.0
2018-Jan-24 11:59N 46°57' E 031°59'0 0.0
2018-Jan-24 11:29N 46°57' E 031°59'0 0.0
2018-Jan-24 10:59N 46°57' E 031°59'0 0.0
2018-Jan-24 10:29N 46°57' E 031°59'0 0.0
2018-Jan-24 09:59N 46°57' E 031°59'0 0.0
2018-Jan-24 09:29N 46°57' E 031°59'0 0.0
2018-Jan-24 08:59N 46°57' E 031°59'0 0.0
2018-Jan-24 08:29N 46°57' E 031°59'0 0.0
2018-Jan-24 07:59N 46°57' E 031°59'0 0.0
2018-Jan-24 07:29N 46°57' E 031°59'0 0.0
2018-Jan-24 06:59N 46°57' E 031°59'0 0.0
2018-Jan-24 06:29N 46°57' E 031°59'0 0.0
2018-Jan-24 05:59N 46°57' E 031°59'0 0.0
2018-Jan-24 05:29N 46°57' E 031°59'0 0.0
2018-Jan-24 04:59N 46°57' E 031°59'0 0.0
2018-Jan-24 04:29N 46°57' E 031°59'0 0.0
2018-Jan-24 03:59N 46°57' E 031°59'0 0.0
2018-Jan-24 03:29N 46°57' E 031°59'0 0.0
2018-Jan-24 02:59N 46°57' E 031°59'0 0.0
2018-Jan-24 02:29N 46°57' E 031°59'0 0.0
2018-Jan-24 01:59N 46°57' E 031°59'0 0.0
2018-Jan-24 01:29N 46°57' E 031°59'0 0.0
2018-Jan-24 00:59N 46°57' E 031°59'0 0.0
2018-Jan-24 00:29N 46°57' E 031°59'0 0.0
2018-Jan-23 23:59N 46°57' E 031°59'0 0.0
2018-Jan-23 23:29N 46°57' E 031°59'0 0.0
2018-Jan-23 22:59N 46°57' E 031°59'0 0.0
2018-Jan-23 22:29N 46°57' E 031°59'0 0.0
2018-Jan-23 21:59N 46°57' E 031°59'0 0.0
2018-Jan-23 21:29N 46°57' E 031°59'0 0.0
2018-Jan-23 20:59N 46°57' E 031°59'0 0.0
2018-Jan-23 20:29N 46°57' E 031°59'0 0.0
2018-Jan-23 19:59N 46°57' E 031°59'0 0.0
2018-Jan-23 19:29N 46°57' E 031°59'0 0.0
2018-Jan-23 18:59N 46°57' E 031°59'0 0.0
2018-Jan-23 18:29N 46°57' E 031°59'0 0.0
2018-Jan-23 17:59N 46°57' E 031°59'0 0.0
2018-Jan-23 17:29N 46°57' E 031°59'0 0.0
2018-Jan-23 16:59N 46°57' E 031°59'0 0.0
2018-Jan-23 16:29N 46°57' E 031°59'0 0.0
2018-Jan-23 15:59N 46°57' E 031°59'0 0.0
2018-Jan-23 15:29N 46°57' E 031°59'0 0.0
2018-Jan-23 14:59N 46°57' E 031°59'0 0.0
2018-Jan-23 14:29N 46°57' E 031°59'0 0.0
2018-Jan-23 13:59N 46°57' E 031°59'0 0.0
2018-Jan-23 13:29N 46°57' E 031°59'0 0.0
2018-Jan-23 12:59N 46°57' E 031°59'0 0.0
2018-Jan-23 12:29N 46°57' E 031°59'0 0.0
2018-Jan-23 11:59N 46°57' E 031°59'0 0.0
2018-Jan-23 11:29N 46°57' E 031°59'0 0.0
2018-Jan-23 10:59N 46°57' E 031°59'0 0.0
2018-Jan-23 10:29N 46°57' E 031°59'0 0.0
2018-Jan-23 09:59N 46°57' E 031°59'0 0.3
2018-Jan-23 09:29N 46°56' E 031°59'1 1.1
2018-Jan-23 08:59N 46°56' E 031°60'0 0.1
2018-Jan-23 08:29N 46°56' E 031°60'0 0.0
2018-Jan-23 07:59N 46°56' E 031°60'0 0.0
2018-Jan-23 07:29N 46°56' E 031°60'0 0.0
2018-Jan-23 06:59N 46°56' E 031°60'0 0.0
2018-Jan-23 06:29N 46°56' E 031°60'0 0.0
2018-Jan-23 05:59N 46°56' E 031°60'0 0.0
2018-Jan-23 05:29N 46°56' E 031°60'0 0.0
2018-Jan-23 04:59N 46°56' E 031°60'0 0.0
2018-Jan-23 04:29N 46°56' E 031°60'0 0.0
2018-Jan-23 03:59N 46°56' E 031°60'0 0.0
2018-Jan-23 03:29N 46°56' E 031°60'0 0.0
2018-Jan-23 02:59N 46°56' E 031°60'0 0.0
2018-Jan-23 02:29N 46°56' E 031°60'0 0.0
2018-Jan-23 01:59N 46°56' E 031°60'0 0.0
2018-Jan-23 01:29N 46°56' E 031°60'0 0.0
2018-Jan-23 00:59N 46°56' E 031°60'0 0.0
2018-Jan-23 00:29N 46°56' E 031°60'0 0.0
2018-Jan-22 23:59N 46°56' E 031°60'0 0.0
2018-Jan-22 23:29N 46°56' E 031°60'0 0.0
2018-Jan-22 22:56N 46°56' E 031°60'0 0.0
2018-Jan-22 22:29N 46°56' E 031°60'0 0.0
2018-Jan-22 21:59N 46°56' E 031°60'0 0.0
2018-Jan-22 21:29N 46°56' E 031°60'0 0.0
2018-Jan-22 20:59N 46°56' E 031°60'0 0.3
2018-Jan-22 20:30N 46°56' E 032°00'2 4.3
2018-Jan-22 20:00N 46°54' E 032°01'510.3
2018-Jan-22 19:30N 46°50' E 031°56'5 9.9
2018-Jan-22 19:00N 46°45' E 031°54'5 9.6
2018-Jan-22 18:30N 46°41' E 031°56'5 9.8
2018-Jan-22 18:00N 46°37' E 031°52'510.5
2018-Jan-22 17:30N 46°36' E 031°44'510.7
2018-Jan-22 17:00N 46°35' E 031°37'5 9.1
2018-Jan-22 16:27N 46°36' E 031°29'510.0
2018-Jan-22 15:58N 46°35' E 031°23'511.1
2018-Jan-22 15:30N 46°35' E 031°15'510.6
2018-Jan-22 15:00N 46°35' E 031°07'4 6.8
2018-Jan-22 14:29N 46°34' E 031°02'3 7.1
2018-Jan-22 14:00N 46°33' E 030°58'510.0
2018-Jan-22 13:30N 46°28' E 030°57'510.1
2018-Jan-22 13:00N 46°23' E 030°60'2 2.7
2018-Jan-22 12:25N 46°21' E 031°01'0 0.1
2018-Jan-22 11:55N 46°21' E 031°01'0 0.1
2018-Jan-22 11:28N 46°21' E 031°01'0 0.0
2018-Jan-22 10:58N 46°21' E 031°01'0 0.0
2018-Jan-22 10:28N 46°21' E 031°01'0 0.0
2018-Jan-22 09:49N 46°21' E 031°01'0 0.0
2018-Jan-22 09:22N 46°21' E 031°01'0 0.1
2018-Jan-22 08:58N 46°22' E 031°01'0 0.0
2018-Jan-22 08:07N 46°22' E 031°01'0 0.3
2018-Jan-22 07:58N 46°22' E 031°01'0 0.2
2018-Jan-22 07:28N 46°21' E 031°01'0 0.1
2018-Jan-22 06:58N 46°22' E 031°01'0 0.1
2018-Jan-22 06:28N 46°22' E 031°01'0 0.1
2018-Jan-22 05:58N 46°22' E 031°01'0 0.0
2018-Jan-22 05:22N 46°22' E 031°01'0 0.0
2018-Jan-22 04:58N 46°22' E 031°01'0 0.0
2018-Jan-22 04:28N 46°22' E 031°01'0 0.0
2018-Jan-22 03:52N 46°22' E 031°01'0 0.1
2018-Jan-22 03:28N 46°22' E 031°01'0 0.0
2018-Jan-22 02:52N 46°22' E 031°01'0 0.0
2018-Jan-22 02:07N 46°22' E 031°01'0 0.1
2018-Jan-22 01:58N 46°22' E 031°01'0 0.0
2018-Jan-22 01:28N 46°22' E 031°01'0 0.0
2018-Jan-22 00:58N 46°22' E 031°01'0 0.1
2018-Jan-22 00:07N 46°22' E 031°01'0 0.2
2018-Jan-21 23:55N 46°22' E 031°01'0 0.0
2018-Jan-21 23:25N 46°22' E 031°01'0 0.0
2018-Jan-21 22:34N 46°22' E 031°01'0 0.0
2018-Jan-21 22:19N 46°22' E 031°01'0 0.0
2018-Jan-21 21:46N 46°22' E 031°01'0 0.2
2018-Jan-21 21:25N 46°22' E 031°01'1 2.1
2018-Jan-21 21:01N 46°21' E 031°02'3 5.2
2018-Jan-21 20:30N 46°18' E 031°03'611.6
2018-Jan-21 20:00N 46°13' E 031°06'611.7
2018-Jan-21 19:30N 46°07' E 031°08'112 2.8
2018-Jan-20 04:11N 44°19' E 030°25'312.2
2018-Jan-20 03:57N 44°17' E 030°24'612.2
2018-Jan-20 03:29N 44°11' E 030°22'  

Dump ship's entire track history